createdAt,value
2023-02-11T00:00:02.000Z,1020.627096
2023-02-11T00:00:37.000Z,1020.627096
2023-02-11T00:01:07.000Z,1020.627096
2023-02-11T00:01:43.000Z,1020.627096
2023-02-11T00:02:07.000Z,1020.7286879999999
2023-02-11T00:02:37.000Z,1020.7286879999999
2023-02-11T00:03:03.000Z,1020.7286879999999
2023-02-11T00:03:29.000Z,1020.525504
2023-02-11T00:03:47.000Z,1020.525504
2023-02-11T00:04:12.000Z,1020.7286879999999
2023-02-11T00:04:37.000Z,1020.7286879999999
2023-02-11T00:05:07.000Z,1020.7286879999999
2023-02-11T00:05:42.000Z,1020.627096
2023-02-11T00:06:12.000Z,1020.7286879999999
2023-02-11T00:06:42.000Z,1020.7286879999999
2023-02-11T00:07:09.000Z,1020.7286879999999
2023-02-11T00:07:32.000Z,1020.7286879999999
2023-02-11T00:08:02.000Z,1020.7286879999999
2023-02-11T00:08:37.000Z,1020.525504
2023-02-11T00:09:07.000Z,1020.525504
2023-02-11T00:09:42.000Z,1020.7286879999999
2023-02-11T00:10:07.000Z,1020.525504
2023-02-11T00:10:37.000Z,1020.525504
2023-02-11T00:11:03.000Z,1020.525504
2023-02-11T00:11:29.000Z,1020.423912
2023-02-11T00:11:57.000Z,1020.423912
2023-02-11T00:12:23.000Z,1020.525504
2023-02-11T00:12:49.000Z,1020.525504
2023-02-11T00:13:17.000Z,1020.423912
2023-02-11T00:13:42.000Z,1020.423912
2023-02-11T00:14:12.000Z,1020.423912
2023-02-11T00:14:42.000Z,1020.423912
2023-02-11T00:15:09.000Z,1020.627096
2023-02-11T00:15:32.000Z,1020.627096
2023-02-11T00:16:02.000Z,1020.627096
2023-02-11T00:16:19.000Z,1020.32232
2023-02-11T00:16:52.000Z,1020.32232
2023-02-11T00:17:22.000Z,1020.32232
2023-02-11T00:17:57.000Z,1020.32232
2023-02-11T00:18:12.000Z,1020.220728
2023-02-11T00:18:42.000Z,1020.220728
2023-02-11T00:19:09.000Z,1020.32232
2023-02-11T00:19:33.000Z,1020.32232
2023-02-11T00:20:07.000Z,1020.32232
2023-02-11T00:20:37.000Z,1020.220728
2023-02-11T00:21:07.000Z,1020.220728
2023-02-11T00:21:42.000Z,1020.220728
2023-02-11T00:22:12.000Z,1020.32232
2023-02-11T00:22:42.000Z,1020.32232
2023-02-11T00:23:09.000Z,1020.220728
2023-02-11T00:23:32.000Z,1020.220728
2023-02-11T00:24:02.000Z,1020.220728
2023-02-11T00:24:37.000Z,1020.220728
2023-02-11T00:25:07.000Z,1020.220728
2023-02-11T00:25:42.000Z,1020.423912
2023-02-11T00:26:12.000Z,1020.220728
2023-02-11T00:26:47.000Z,1020.220728
2023-02-11T00:27:10.000Z,1020.220728
2023-02-11T00:27:29.000Z,1020.220728
2023-02-11T00:27:57.000Z,1020.220728
2023-02-11T00:28:23.000Z,1020.220728
2023-02-11T00:28:52.000Z,1020.220728
2023-02-11T00:29:17.000Z,1020.32232
2023-02-11T00:29:42.000Z,1020.32232
2023-02-11T00:30:07.000Z,1020.220728
2023-02-11T00:30:37.000Z,1020.220728
2023-02-11T00:31:03.000Z,1020.220728
2023-02-11T00:31:29.000Z,1020.220728
2023-02-11T00:31:57.000Z,1020.220728
2023-02-11T00:32:20.000Z,1020.32232
2023-02-11T00:32:52.000Z,1020.32232
2023-02-11T00:33:27.000Z,1020.525504
2023-02-11T00:33:57.000Z,1020.525504
2023-02-11T00:34:27.000Z,1020.32232
2023-02-11T00:35:02.000Z,1020.32232
2023-02-11T00:35:32.000Z,1020.32232
2023-02-11T00:36:02.000Z,1020.32232
2023-02-11T00:36:18.000Z,1020.525504
2023-02-11T00:36:52.000Z,1020.525504
2023-02-11T00:37:27.000Z,1020.423912
2023-02-11T00:37:57.000Z,1020.423912
2023-02-11T00:38:27.000Z,1020.32232
2023-02-11T00:39:12.000Z,1020.32232
2023-02-11T00:39:34.000Z,1020.32232
2023-02-11T00:40:02.000Z,1020.32232
2023-02-11T00:40:28.000Z,1020.220728
2023-02-11T00:40:53.000Z,1020.220728
2023-02-11T00:41:17.000Z,1020.423912
2023-02-11T00:41:42.000Z,1020.423912
2023-02-11T00:42:07.000Z,1020.32232
2023-02-11T00:42:27.000Z,1020.32232
2023-02-11T00:43:02.000Z,1020.32232
2023-02-11T00:43:32.000Z,1020.32232
2023-02-11T00:44:02.000Z,1020.32232
2023-02-11T00:44:18.000Z,1020.525504
2023-02-11T00:44:52.000Z,1020.525504
2023-02-11T00:45:27.000Z,1020.525504
2023-02-11T00:45:59.000Z,1020.525504
2023-02-11T00:46:27.000Z,1020.525504
2023-02-11T00:47:03.000Z,1020.525504
2023-02-11T00:47:32.000Z,1020.525504
2023-02-11T00:48:02.000Z,1020.525504
2023-02-11T00:48:19.000Z,1020.423912
2023-02-11T00:48:49.000Z,1020.423912
2023-02-11T00:49:17.000Z,1020.423912
2023-02-11T00:49:42.000Z,1020.423912
2023-02-11T00:50:07.000Z,1020.423912
2023-02-11T00:50:37.000Z,1020.423912
2023-02-11T00:51:02.000Z,1020.423912
2023-02-11T00:51:32.000Z,1020.32232
2023-02-11T00:52:02.000Z,1020.32232
2023-02-11T00:52:37.000Z,1020.423912
2023-02-11T00:53:07.000Z,1020.423912
2023-02-11T00:53:42.000Z,1020.525504
2023-02-11T00:54:12.000Z,1020.423912
2023-02-11T00:54:42.000Z,1020.423912
2023-02-11T00:55:08.000Z,1020.32232
2023-02-11T00:55:32.000Z,1020.32232
2023-02-11T00:56:02.000Z,1020.32232
2023-02-11T00:56:37.000Z,1020.32232
2023-02-11T00:57:05.000Z,1020.32232
2023-02-11T00:57:29.000Z,1020.220728
2023-02-11T00:57:57.000Z,1020.220728
2023-02-11T00:58:22.000Z,1020.32232
2023-02-11T00:58:44.000Z,1020.32232
2023-02-11T00:59:12.000Z,1020.32232
2023-02-11T00:59:35.000Z,1020.32232
2023-02-11T01:00:02.000Z,1020.32232
2023-02-11T01:00:18.000Z,1020.1191359999999
2023-02-11T01:00:52.000Z,1020.1191359999999
2023-02-11T01:01:07.000Z,1020.1191359999999
2023-02-11T01:01:42.000Z,1020.1191359999999
2023-02-11T01:02:12.000Z,1020.220728
2023-02-11T01:02:42.000Z,1020.220728
2023-02-11T01:03:02.000Z,1020.220728
2023-02-11T01:03:32.000Z,1020.220728
2023-02-11T01:04:02.000Z,1020.220728
2023-02-11T01:04:19.000Z,1020.220728
2023-02-11T01:04:52.000Z,1020.220728
2023-02-11T01:05:27.000Z,1020.017544
2023-02-11T01:05:57.000Z,1020.017544
2023-02-11T01:06:27.000Z,1020.1191359999999
2023-02-11T01:07:02.000Z,1020.1191359999999
2023-02-11T01:07:32.000Z,1020.220728
2023-02-11T01:08:02.000Z,1020.220728
2023-02-11T01:08:19.000Z,1020.1191359999999
2023-02-11T01:08:52.000Z,1020.1191359999999
2023-02-11T01:09:08.000Z,1020.32232
2023-02-11T01:09:42.000Z,1020.32232
2023-02-11T01:10:12.000Z,1020.017544
2023-02-11T01:10:42.000Z,1020.017544
2023-02-11T01:11:09.000Z,1020.32232
2023-02-11T01:11:32.000Z,1020.32232
2023-02-11T01:12:02.000Z,1020.32232
2023-02-11T01:12:37.000Z,1020.220728
2023-02-11T01:13:07.000Z,1020.220728
2023-02-11T01:13:42.000Z,1020.220728
2023-02-11T01:14:22.000Z,1020.220728
2023-02-11T01:14:44.000Z,1020.220728
2023-02-11T01:15:12.000Z,1020.220728
2023-02-11T01:15:34.000Z,1020.220728
2023-02-11T01:16:02.000Z,1020.220728
2023-02-11T01:16:37.000Z,1020.32232
2023-02-11T01:17:17.000Z,1020.32232
2023-02-11T01:17:42.000Z,1020.32232
2023-02-11T01:18:07.000Z,1020.32232
2023-02-11T01:18:37.000Z,1020.32232
2023-02-11T01:19:03.000Z,1020.32232
2023-02-11T01:19:32.000Z,1020.32232
2023-02-11T01:20:02.000Z,1020.32232
2023-02-11T01:20:37.000Z,1020.220728
2023-02-11T01:21:07.000Z,1020.220728
2023-02-11T01:21:42.000Z,1020.32232
2023-02-11T01:22:12.000Z,1020.220728
2023-02-11T01:22:42.000Z,1020.220728
2023-02-11T01:23:09.000Z,1020.1191359999999
2023-02-11T01:23:32.000Z,1020.1191359999999
2023-02-11T01:24:02.000Z,1020.1191359999999
2023-02-11T01:24:38.000Z,1020.423912
2023-02-11T01:25:07.000Z,1020.423912
2023-02-11T01:25:52.000Z,1020.1191359999999
2023-02-11T01:26:12.000Z,1020.423912
2023-02-11T01:26:42.000Z,1020.423912
2023-02-11T01:27:09.000Z,1020.32232
2023-02-11T01:27:32.000Z,1020.32232
2023-02-11T01:28:02.000Z,1020.32232
2023-02-11T01:28:37.000Z,1020.220728
2023-02-11T01:29:07.000Z,1020.220728
2023-02-11T01:29:42.000Z,1020.423912
2023-02-11T01:30:12.000Z,1020.423912
2023-02-11T01:30:42.000Z,1020.423912
2023-02-11T01:31:09.000Z,1020.423912
2023-02-11T01:31:32.000Z,1020.423912
2023-02-11T01:32:02.000Z,1020.423912
2023-02-11T01:32:47.000Z,1020.423912
2023-02-11T01:33:17.000Z,1020.525504
2023-02-11T01:33:42.000Z,1020.525504
2023-02-11T01:34:07.000Z,1020.220728
2023-02-11T01:34:37.000Z,1020.220728
2023-02-11T01:35:03.000Z,1020.220728
2023-02-11T01:35:29.000Z,1020.220728
2023-02-11T01:36:07.000Z,1020.220728
2023-02-11T01:36:47.000Z,1020.423912
2023-02-11T01:37:17.000Z,1020.423912
2023-02-11T01:37:42.000Z,1020.423912
2023-02-11T01:38:12.000Z,1020.423912
2023-02-11T01:38:42.000Z,1020.423912
2023-02-11T01:39:08.000Z,1020.525504
2023-02-11T01:39:32.000Z,1020.525504
2023-02-11T01:40:02.000Z,1020.525504
2023-02-11T01:40:37.000Z,1020.423912
2023-02-11T01:41:07.000Z,1020.423912
2023-02-11T01:41:42.000Z,1020.423912
2023-02-11T01:42:12.000Z,1020.32232
2023-02-11T01:42:42.000Z,1020.32232
2023-02-11T01:43:08.000Z,1020.423912
2023-02-11T01:43:32.000Z,1020.423912
2023-02-11T01:44:02.000Z,1020.423912
2023-02-11T01:44:37.000Z,1020.423912
2023-02-11T01:45:07.000Z,1020.423912
2023-02-11T01:45:42.000Z,1020.423912
2023-02-11T01:46:12.000Z,1020.220728
2023-02-11T01:46:42.000Z,1020.220728
2023-02-11T01:47:08.000Z,1020.423912
2023-02-11T01:47:32.000Z,1020.423912
2023-02-11T01:48:02.000Z,1020.423912
2023-02-11T01:48:37.000Z,1020.423912
2023-02-11T01:49:07.000Z,1020.423912
2023-02-11T01:49:42.000Z,1020.32232
2023-02-11T01:50:12.000Z,1020.32232
2023-02-11T01:50:52.000Z,1020.32232
2023-02-11T01:51:18.000Z,1020.525504
2023-02-11T01:51:45.000Z,1020.525504
2023-02-11T01:52:02.000Z,1020.525504
2023-02-11T01:52:37.000Z,1020.220728
2023-02-11T01:53:07.000Z,1020.220728
2023-02-11T01:53:42.000Z,1020.32232
2023-02-11T01:54:12.000Z,1020.32232
2023-02-11T01:54:42.000Z,1020.32232
2023-02-11T01:55:08.000Z,1020.1191359999999
2023-02-11T01:55:32.000Z,1020.1191359999999
2023-02-11T01:56:02.000Z,1020.1191359999999
2023-02-11T01:56:37.000Z,1020.32232
2023-02-11T01:57:07.000Z,1020.32232
2023-02-11T01:57:42.000Z,1020.220728
2023-02-11T01:58:13.000Z,1020.017544
2023-02-11T01:58:42.000Z,1020.017544
2023-02-11T01:59:12.000Z,1020.1191359999999
2023-02-11T01:59:35.000Z,1020.1191359999999
2023-02-11T02:00:02.000Z,1020.1191359999999
2023-02-11T02:00:19.000Z,1020.1191359999999
2023-02-11T02:00:52.000Z,1020.1191359999999
2023-02-11T02:01:14.000Z,1020.220728
2023-02-11T02:01:42.000Z,1020.220728
2023-02-11T02:02:12.000Z,1020.1191359999999
2023-02-11T02:02:42.000Z,1020.1191359999999
2023-02-11T02:03:09.000Z,1020.1191359999999
2023-02-11T02:03:32.000Z,1020.1191359999999
2023-02-11T02:04:02.000Z,1020.1191359999999
2023-02-11T02:04:28.000Z,1020.1191359999999
2023-02-11T02:04:52.000Z,1020.1191359999999
2023-02-11T02:05:27.000Z,1020.220728
2023-02-11T02:05:57.000Z,1020.220728
2023-02-11T02:06:12.000Z,1020.1191359999999
2023-02-11T02:06:43.000Z,1020.1191359999999
2023-02-11T02:07:09.000Z,1020.017544
2023-02-11T02:07:32.000Z,1020.017544
2023-02-11T02:08:02.000Z,1020.017544
2023-02-11T02:08:18.000Z,1020.017544
2023-02-11T02:08:52.000Z,1020.017544
2023-02-11T02:09:14.000Z,1020.017544
2023-02-11T02:09:42.000Z,1020.017544
2023-02-11T02:10:12.000Z,1020.220728
2023-02-11T02:10:42.000Z,1020.220728
2023-02-11T02:11:02.000Z,1020.220728
2023-02-11T02:11:32.000Z,1020.220728
2023-02-11T02:12:02.000Z,1020.220728
2023-02-11T02:12:18.000Z,1020.017544
2023-02-11T02:12:52.000Z,1020.017544
2023-02-11T02:13:23.000Z,1020.32232
2023-02-11T02:13:53.000Z,1020.32232
2023-02-11T02:14:22.000Z,1020.220728
2023-02-11T02:14:44.000Z,1020.220728
2023-02-11T02:15:12.000Z,1020.017544
2023-02-11T02:15:32.000Z,1020.017544
2023-02-11T02:16:02.000Z,1020.017544
2023-02-11T02:16:37.000Z,1019.81436
2023-02-11T02:17:07.000Z,1019.81436
2023-02-11T02:17:42.000Z,1020.017544
2023-02-11T02:18:12.000Z,1019.746632
2023-02-11T02:18:42.000Z,1019.746632
2023-02-11T02:19:09.000Z,1019.915952
2023-02-11T02:19:32.000Z,1019.915952
2023-02-11T02:20:02.000Z,1019.915952
2023-02-11T02:20:19.000Z,1020.017544
2023-02-11T02:20:52.000Z,1020.017544
2023-02-11T02:21:27.000Z,1019.64504
2023-02-11T02:21:53.000Z,1019.64504
2023-02-11T02:22:22.000Z,1019.64504
2023-02-11T02:22:44.000Z,1019.64504
2023-02-11T02:23:12.000Z,1019.441856
2023-02-11T02:23:35.000Z,1019.441856
2023-02-11T02:24:02.000Z,1019.441856
2023-02-11T02:24:28.000Z,1019.64504
2023-02-11T02:24:53.000Z,1019.64504
2023-02-11T02:25:17.000Z,1019.543448
2023-02-11T02:25:42.000Z,1019.543448
2023-02-11T02:26:12.000Z,1019.64504
2023-02-11T02:26:42.000Z,1019.64504
2023-02-11T02:27:02.000Z,1019.64504
2023-02-11T02:27:32.000Z,1019.64504
2023-02-11T02:28:02.000Z,1019.64504
2023-02-11T02:28:18.000Z,1019.746632
2023-02-11T02:28:37.000Z,1019.746632
2023-02-11T02:29:07.000Z,1019.746632
2023-02-11T02:29:42.000Z,1019.81436
2023-02-11T02:30:12.000Z,1019.81436
2023-02-11T02:30:42.000Z,1019.81436
2023-02-11T02:31:02.000Z,1019.81436
2023-02-11T02:31:32.000Z,1019.64504
2023-02-11T02:32:03.000Z,1019.64504
2023-02-11T02:32:37.000Z,1019.81436
2023-02-11T02:33:07.000Z,1019.81436
2023-02-11T02:33:42.000Z,1019.81436
2023-02-11T02:34:12.000Z,1019.746632
2023-02-11T02:34:42.000Z,1019.746632
2023-02-11T02:35:08.000Z,1019.746632
2023-02-11T02:35:32.000Z,1019.746632
2023-02-11T02:36:02.000Z,1019.746632
2023-02-11T02:36:18.000Z,1019.81436
2023-02-11T02:36:37.000Z,1019.81436
2023-02-11T02:37:07.000Z,1019.81436
2023-02-11T02:37:42.000Z,1019.746632
2023-02-11T02:38:12.000Z,1019.81436
2023-02-11T02:38:42.000Z,1019.81436
2023-02-11T02:39:02.000Z,1019.81436
2023-02-11T02:39:42.000Z,1019.81436
2023-02-11T02:40:12.000Z,1020.017544
2023-02-11T02:40:37.000Z,1020.017544
2023-02-11T02:41:05.000Z,1020.017544
2023-02-11T02:41:52.000Z,1019.746632
2023-02-11T02:42:22.000Z,1019.81436
2023-02-11T02:42:44.000Z,1019.81436
2023-02-11T02:43:12.000Z,1019.81436
2023-02-11T02:43:32.000Z,1019.81436
2023-02-11T02:44:07.000Z,1019.81436
2023-02-11T02:44:37.000Z,1019.915952
2023-02-11T02:45:07.000Z,1019.915952
2023-02-11T02:45:42.000Z,1019.81436
2023-02-11T02:46:12.000Z,1019.915952
2023-02-11T02:46:42.000Z,1019.915952
2023-02-11T02:47:09.000Z,1019.746632
2023-02-11T02:47:32.000Z,1019.746632
2023-02-11T02:48:02.000Z,1019.746632
2023-02-11T02:48:38.000Z,1019.746632
2023-02-11T02:49:07.000Z,1019.746632
2023-02-11T02:49:42.000Z,1019.81436
2023-02-11T02:50:13.000Z,1019.746632
2023-02-11T02:50:42.000Z,1019.746632
2023-02-11T02:51:08.000Z,1019.746632
2023-02-11T02:51:32.000Z,1019.746632
2023-02-11T02:52:02.000Z,1019.746632
2023-02-11T02:52:37.000Z,1019.746632
2023-02-11T02:53:07.000Z,1019.746632
2023-02-11T02:53:42.000Z,1019.746632
2023-02-11T02:54:12.000Z,1019.746632
2023-02-11T02:54:42.000Z,1019.746632
2023-02-11T02:55:02.000Z,1019.746632
2023-02-11T02:55:32.000Z,1019.81436
2023-02-11T02:56:02.000Z,1019.81436
2023-02-11T02:56:18.000Z,1019.746632
2023-02-11T02:57:02.000Z,1019.746632
2023-02-11T02:57:28.000Z,1019.81436
2023-02-11T02:57:53.000Z,1019.81436
2023-02-11T02:58:22.000Z,1019.746632
2023-02-11T02:58:44.000Z,1019.746632
2023-02-11T02:59:12.000Z,1019.746632
2023-02-11T02:59:34.000Z,1019.746632
2023-02-11T03:00:02.000Z,1019.746632
2023-02-11T03:00:28.000Z,1019.81436
2023-02-11T03:00:53.000Z,1019.81436
2023-02-11T03:01:17.000Z,1019.746632
2023-02-11T03:01:42.000Z,1019.746632
2023-02-11T03:02:12.000Z,1019.746632
2023-02-11T03:02:42.000Z,1019.746632
2023-02-11T03:03:02.000Z,1019.746632
2023-02-11T03:03:32.000Z,1019.64504
2023-02-11T03:04:02.000Z,1019.64504
2023-02-11T03:04:19.000Z,1019.746632
2023-02-11T03:04:52.000Z,1019.746632
2023-02-11T03:05:27.000Z,1019.64504
2023-02-11T03:05:57.000Z,1019.64504
2023-02-11T03:06:27.000Z,1019.543448
2023-02-11T03:07:02.000Z,1019.543448
2023-02-11T03:07:32.000Z,1019.64504
2023-02-11T03:08:12.000Z,1019.64504
2023-02-11T03:08:37.000Z,1019.64504
2023-02-11T03:09:05.000Z,1019.64504
2023-02-11T03:09:28.000Z,1019.64504
2023-02-11T03:09:53.000Z,1019.64504
2023-02-11T03:10:22.000Z,1019.543448
2023-02-11T03:10:45.000Z,1019.543448
2023-02-11T03:11:12.000Z,1019.746632
2023-02-11T03:11:34.000Z,1019.746632
2023-02-11T03:12:02.000Z,1019.746632
2023-02-11T03:12:37.000Z,1019.64504
2023-02-11T03:13:07.000Z,1019.64504
2023-02-11T03:13:42.000Z,1019.543448
2023-02-11T03:14:12.000Z,1019.64504
2023-02-11T03:14:42.000Z,1019.64504
2023-02-11T03:15:09.000Z,1019.746632
2023-02-11T03:15:32.000Z,1019.746632
2023-02-11T03:16:02.000Z,1019.746632
2023-02-11T03:16:37.000Z,1019.746632
2023-02-11T03:17:07.000Z,1019.746632
2023-02-11T03:17:42.000Z,1019.81436
2023-02-11T03:18:07.000Z,1019.81436
2023-02-11T03:18:37.000Z,1019.81436
2023-02-11T03:19:03.000Z,1019.81436
2023-02-11T03:19:29.000Z,1019.746632
2023-02-11T03:19:57.000Z,1019.746632
2023-02-11T03:20:24.000Z,1019.746632
2023-02-11T03:20:49.000Z,1019.746632
2023-02-11T03:21:07.000Z,1019.746632
2023-02-11T03:21:42.000Z,1019.915952
2023-02-11T03:22:12.000Z,1019.746632
2023-02-11T03:22:42.000Z,1019.746632
2023-02-11T03:23:09.000Z,1019.915952
2023-02-11T03:23:32.000Z,1019.915952
2023-02-11T03:24:02.000Z,1019.915952
2023-02-11T03:24:37.000Z,1019.81436
2023-02-11T03:25:07.000Z,1019.81436
2023-02-11T03:25:42.000Z,1019.746632
2023-02-11T03:26:12.000Z,1019.746632
2023-02-11T03:26:42.000Z,1019.746632
2023-02-11T03:27:09.000Z,1019.543448
2023-02-11T03:27:33.000Z,1019.543448
2023-02-11T03:28:07.000Z,1019.543448
2023-02-11T03:28:47.000Z,1019.746632
2023-02-11T03:29:17.000Z,1019.915952
2023-02-11T03:29:42.000Z,1019.915952
2023-02-11T03:30:07.000Z,1020.1191359999999
2023-02-11T03:30:37.000Z,1020.1191359999999
2023-02-11T03:31:03.000Z,1020.1191359999999
2023-02-11T03:31:32.000Z,1019.81436
2023-02-11T03:32:02.000Z,1019.81436
2023-02-11T03:32:37.000Z,1019.81436
2023-02-11T03:33:07.000Z,1019.81436
2023-02-11T03:33:42.000Z,1019.64504
2023-02-11T03:34:12.000Z,1019.81436
2023-02-11T03:34:42.000Z,1019.81436
2023-02-11T03:35:09.000Z,1019.915952
2023-02-11T03:35:32.000Z,1019.915952
2023-02-11T03:36:02.000Z,1019.915952
2023-02-11T03:36:37.000Z,1020.1191359999999
2023-02-11T03:37:07.000Z,1020.1191359999999
2023-02-11T03:37:52.000Z,1019.746632
2023-02-11T03:38:22.000Z,1019.746632
2023-02-11T03:38:42.000Z,1019.746632
2023-02-11T03:39:09.000Z,1019.915952
2023-02-11T03:39:32.000Z,1019.915952
2023-02-11T03:40:02.000Z,1019.915952
2023-02-11T03:40:18.000Z,1019.915952
2023-02-11T03:40:52.000Z,1019.915952
2023-02-11T03:41:27.000Z,1019.81436
2023-02-11T03:41:57.000Z,1019.81436
2023-02-11T03:42:27.000Z,1019.746632
2023-02-11T03:43:02.000Z,1019.746632
2023-02-11T03:43:32.000Z,1019.81436
2023-02-11T03:44:02.000Z,1019.81436
2023-02-11T03:44:19.000Z,1019.746632
2023-02-11T03:45:02.000Z,1019.746632
2023-02-11T03:45:27.000Z,1019.915952
2023-02-11T03:45:53.000Z,1019.915952
2023-02-11T03:46:12.000Z,1019.81436
2023-02-11T03:46:42.000Z,1019.81436
2023-02-11T03:47:09.000Z,1019.81436
2023-02-11T03:47:32.000Z,1019.81436
2023-02-11T03:48:02.000Z,1019.81436
2023-02-11T03:48:19.000Z,1019.915952
2023-02-11T03:48:52.000Z,1019.915952
2023-02-11T03:49:27.000Z,1019.746632
2023-02-11T03:49:57.000Z,1019.746632
2023-02-11T03:50:27.000Z,1019.746632
2023-02-11T03:51:02.000Z,1019.746632
2023-02-11T03:51:32.000Z,1019.746632
2023-02-11T03:52:17.000Z,1019.746632
2023-02-11T03:52:40.000Z,1019.746632
2023-02-11T03:53:07.000Z,1019.746632
2023-02-11T03:53:37.000Z,1019.543448
2023-02-11T03:54:12.000Z,1019.746632
2023-02-11T03:54:42.000Z,1019.746632
2023-02-11T03:55:09.000Z,1019.64504
2023-02-11T03:55:32.000Z,1019.64504
2023-02-11T03:56:02.000Z,1019.64504
2023-02-11T03:56:37.000Z,1019.543448
2023-02-11T03:57:07.000Z,1019.543448
2023-02-11T03:57:42.000Z,1019.64504
2023-02-11T03:58:12.000Z,1019.64504
2023-02-11T03:58:42.000Z,1019.64504
2023-02-11T03:59:09.000Z,1019.746632
2023-02-11T03:59:33.000Z,1019.746632
2023-02-11T04:00:02.000Z,1019.746632
2023-02-11T04:00:37.000Z,1019.746632
2023-02-11T04:01:17.000Z,1019.746632
2023-02-11T04:01:42.000Z,1019.746632
2023-02-11T04:02:07.000Z,1019.746632
2023-02-11T04:02:37.000Z,1019.746632
2023-02-11T04:03:03.000Z,1019.746632
2023-02-11T04:03:32.000Z,1019.64504
2023-02-11T04:04:02.000Z,1019.64504
2023-02-11T04:04:37.000Z,1019.746632
2023-02-11T04:05:07.000Z,1019.746632
2023-02-11T04:05:42.000Z,1019.746632
2023-02-11T04:06:12.000Z,1019.81436
2023-02-11T04:06:42.000Z,1019.81436
2023-02-11T04:07:09.000Z,1019.746632
2023-02-11T04:07:32.000Z,1019.746632
2023-02-11T04:08:02.000Z,1019.746632
2023-02-11T04:08:37.000Z,1019.746632
2023-02-11T04:09:07.000Z,1019.746632
2023-02-11T04:09:52.000Z,1019.81436
2023-02-11T04:10:22.000Z,1019.81436
2023-02-11T04:10:42.000Z,1019.81436
2023-02-11T04:11:09.000Z,1019.81436
2023-02-11T04:11:32.000Z,1019.81436
2023-02-11T04:12:02.000Z,1019.81436
2023-02-11T04:12:37.000Z,1019.746632
2023-02-11T04:13:07.000Z,1019.746632
2023-02-11T04:13:42.000Z,1019.64504
2023-02-11T04:14:12.000Z,1019.64504
2023-02-11T04:14:42.000Z,1019.64504
2023-02-11T04:15:09.000Z,1019.543448
2023-02-11T04:15:32.000Z,1019.543448
2023-02-11T04:16:02.000Z,1019.543448
2023-02-11T04:16:37.000Z,1019.441856
2023-02-11T04:17:17.000Z,1019.64504
2023-02-11T04:17:42.000Z,1019.64504
2023-02-11T04:18:12.000Z,1019.3402639999999
2023-02-11T04:18:42.000Z,1019.3402639999999
2023-02-11T04:19:10.000Z,1019.543448
2023-02-11T04:19:32.000Z,1019.543448
2023-02-11T04:20:02.000Z,1019.543448
2023-02-11T04:20:37.000Z,1019.441856
2023-02-11T04:21:07.000Z,1019.441856
2023-02-11T04:21:42.000Z,1019.543448
2023-02-11T04:22:12.000Z,1019.746632
2023-02-11T04:22:42.000Z,1019.746632
2023-02-11T04:23:09.000Z,1019.543448
2023-02-11T04:23:32.000Z,1019.543448
2023-02-11T04:24:02.000Z,1019.543448
2023-02-11T04:24:47.000Z,1019.543448
2023-02-11T04:25:17.000Z,1019.64504
2023-02-11T04:25:42.000Z,1019.64504
2023-02-11T04:26:07.000Z,1019.441856
2023-02-11T04:26:37.000Z,1019.441856
2023-02-11T04:27:03.000Z,1019.441856
2023-02-11T04:27:32.000Z,1019.543448
2023-02-11T04:28:02.000Z,1019.543448
2023-02-11T04:28:18.000Z,1019.64504
2023-02-11T04:28:52.000Z,1019.64504
2023-02-11T04:29:27.000Z,1019.543448
2023-02-11T04:29:57.000Z,1019.543448
2023-02-11T04:30:27.000Z,1019.746632
2023-02-11T04:31:02.000Z,1019.746632
2023-02-11T04:31:32.000Z,1019.543448
2023-02-11T04:32:02.000Z,1019.543448
2023-02-11T04:32:20.000Z,1019.746632
2023-02-11T04:32:52.000Z,1019.746632
2023-02-11T04:33:07.000Z,1019.746632
2023-02-11T04:33:42.000Z,1019.746632
2023-02-11T04:34:12.000Z,1019.746632
2023-02-11T04:34:42.000Z,1019.746632
2023-02-11T04:35:09.000Z,1019.915952
2023-02-11T04:35:32.000Z,1019.915952
2023-02-11T04:36:02.000Z,1019.915952
2023-02-11T04:36:37.000Z,1019.543448
2023-02-11T04:37:07.000Z,1019.543448
2023-02-11T04:37:42.000Z,1019.915952
2023-02-11T04:38:13.000Z,1020.017544
2023-02-11T04:38:42.000Z,1020.017544
2023-02-11T04:39:09.000Z,1019.746632
2023-02-11T04:39:32.000Z,1019.746632
2023-02-11T04:40:02.000Z,1019.746632
2023-02-11T04:40:18.000Z,1020.220728
2023-02-11T04:40:52.000Z,1020.220728
2023-02-11T04:41:27.000Z,1020.017544
2023-02-11T04:41:57.000Z,1020.017544
2023-02-11T04:42:27.000Z,1020.017544
2023-02-11T04:43:02.000Z,1020.017544
2023-02-11T04:43:32.000Z,1019.915952
2023-02-11T04:44:02.000Z,1019.915952
2023-02-11T04:44:18.000Z,1019.81436
2023-02-11T04:44:52.000Z,1019.81436
2023-02-11T04:45:27.000Z,1019.81436
2023-02-11T04:45:57.000Z,1019.81436
2023-02-11T04:46:27.000Z,1019.915952
2023-02-11T04:47:12.000Z,1020.017544
2023-02-11T04:47:35.000Z,1020.017544
2023-02-11T04:48:02.000Z,1020.017544
2023-02-11T04:48:37.000Z,1019.81436
2023-02-11T04:49:17.000Z,1019.81436
2023-02-11T04:49:42.000Z,1019.81436
2023-02-11T04:50:07.000Z,1019.81436
2023-02-11T04:50:37.000Z,1019.81436
2023-02-11T04:51:03.000Z,1019.81436
2023-02-11T04:51:29.000Z,1020.017544
2023-02-11T04:51:57.000Z,1020.017544
2023-02-11T04:52:23.000Z,1019.81436
2023-02-11T04:52:49.000Z,1019.81436
2023-02-11T04:53:17.000Z,1019.746632
2023-02-11T04:53:42.000Z,1019.746632
2023-02-11T04:54:07.000Z,1019.64504
2023-02-11T04:54:37.000Z,1019.64504
2023-02-11T04:55:03.000Z,1019.64504
2023-02-11T04:55:29.000Z,1019.81436
2023-02-11T04:56:02.000Z,1019.81436
2023-02-11T04:56:37.000Z,1019.81436
2023-02-11T04:57:07.000Z,1019.81436
2023-02-11T04:57:42.000Z,1019.64504
2023-02-11T04:58:12.000Z,1019.543448
2023-02-11T04:58:42.000Z,1019.543448
2023-02-11T04:59:09.000Z,1019.543448
2023-02-11T04:59:32.000Z,1019.543448
2023-02-11T05:00:02.000Z,1019.543448
2023-02-11T05:00:37.000Z,1019.746632
2023-02-11T05:01:07.000Z,1019.746632
2023-02-11T05:01:42.000Z,1019.915952
2023-02-11T05:02:22.000Z,1019.64504
2023-02-11T05:02:45.000Z,1019.64504
2023-02-11T05:03:12.000Z,1019.915952
2023-02-11T05:03:35.000Z,1019.915952
2023-02-11T05:04:02.000Z,1019.915952
2023-02-11T05:04:37.000Z,1019.81436
2023-02-11T05:05:07.000Z,1019.81436
2023-02-11T05:05:42.000Z,1019.543448
2023-02-11T05:06:12.000Z,1019.81436
2023-02-11T05:06:42.000Z,1019.81436
2023-02-11T05:07:09.000Z,1019.64504
2023-02-11T05:07:32.000Z,1019.64504
2023-02-11T05:08:02.000Z,1019.64504
2023-02-11T05:08:37.000Z,1019.746632
2023-02-11T05:09:07.000Z,1019.746632
2023-02-11T05:09:42.000Z,1019.64504